Miguel Nunez

Recruteur en chef - Nacional
2 Juil 2028
Dimanche
Processus

Personnalité

Adaptabilité (20) Ambition (10) Controverse (19) Loyauté (5) Pression (17) Professionnalisme (16) Sportivité (15) Tempérament (7)

Profil

Style d'entraînement Démocratique
Diplôme National B
Détermination 5
Gestion des joueurs 9
Motivation 13
Discipline 9
Satisfaction professionnelle
100%
Fatigue
0%
Rôle Recruteur en chef
Salaire 49.7K p/s
Contrat 14.03.2030

Performance

Comportement Bon
Efficacité de l'entraînement
55%
Développement des joueurs
55%
Prévention des blessures
25%
Mise en place tactique
70%

Événements récents

A participé à une réunion de recrutement maintenant
A recommandé une cible de transfert maintenant
A recommandé une cible de transfert maintenant
A recommandé une cible de transfert maintenant
A recommandé une cible de transfert maintenant
A recommandé une cible de transfert 7j
A recommandé une cible de transfert 7j
A recommandé une cible de transfert 7j

Suivi en cours

314
Joueur Club Statut Capacité Confiance Observé Dernière observation Dernier vote
Agustín Alaniz Rentistas Actif 118 / 120 79% 1 19.06.2028 Approuver
Rodolfo Central Espanol Négociation 106 / 104 79% 1 12.06.2028 Approuver
Nicolás Ferreira Wanderers Actif 116 / 123 79% 1 07.06.2028 Approuver
Mohamed-Ali Cho Hull City Actif 147 / 131 40% 7 01.06.2028 -
Sebastiano Esposito Cagliari Actif 151 / 132 40% 2 01.06.2028 -
Rodrigo Muniz Fulham Actif 139 / 149 40% 1 01.06.2028 -
Shea Charles Southampton Actif 148 / 141 40% 8 31.05.2028 -
Jhon Solís Birmingham Actif 135 / 131 40% 1 31.05.2028 -
Demarai Gray Birmingham Actif 139 / 136 40% 1 29.05.2028 -
Joelinton Everton Actif 165 / 166 40% 6 24.05.2028 -
Bryan Gil Girona Actif 147 / 150 40% 8 24.05.2028 -
Amine Adli Bournemouth Actif 149 / 137 40% 3 24.05.2028 -
Harry Wilson Leeds United Actif 145 / 160 40% 2 23.05.2028 -
Amath N'Diaye Valladolid Actif 129 / 134 40% 3 23.05.2028 -
Kasey McAteer Barnsley Actif 135 / 129 40% 2 23.05.2028 -
Jayden Danns Bradford City Actif 139 / 151 40% 3 22.05.2028 -
Finn Azaz Southampton Actif 137 / 126 40% 4 22.05.2028 -
Ben Gannon Doak Charlton Athletic Actif 145 / 144 40% 10 21.05.2028 -
Tyrese Campbell Sheffield United Actif 133 / 131 40% 6 20.05.2028 -
Jaidon Anthony Derby County Actif 141 / 128 40% 6 20.05.2028 -
Jaden Philogene Wolverhampton Actif 152 / 158 40% 4 19.05.2028 -
Henrik Meister Pisa Actif 137 / 136 40% 3 17.05.2028 -
Marcus Tavernier Bournemouth Actif 157 / 149 40% 4 16.05.2028 -
Abdoul Ouattara Port Vale Actif 136 / 132 40% 6 16.05.2028 -
Carlos Vicente Birmingham Actif 150 / 157 40% 7 15.05.2028 -
Gonzalo Fulham Actif 158 / 161 40% 4 15.05.2028 -
Samuel Edozie Southampton Actif 133 / 133 40% 5 13.05.2028 -
Jeremy Sarmiento Middlesbrough Actif 137 / 136 40% 1 13.05.2028 -
Koki Saito Queens Park Rangers Actif 139 / 145 40% 2 12.05.2028 -
Callum O'Hare Sheffield United Actif 131 / 147 40% 1 12.05.2028 -
Carlos Fernández Oviedo Actif 134 / 120 40% 3 11.05.2028 -
Jayden Addai Bari Actif 145 / 150 40% 1 11.05.2028 -
Jarrod Bowen West Ham United Actif 160 / 150 40% 1 10.05.2028 -
Marcus Edwards Burnley Actif 144 / 153 40% 6 09.05.2028 -
Allan Reading Actif 141 / 128 40% 4 09.05.2028 -
Ismaïla Sarr Crystal Palace Actif 158 / 161 40% 7 08.05.2028 -
Dango Ouattara Leicester City Actif 149 / 154 40% 7 08.05.2028 -
Sorba Thomas Stoke City Actif 135 / 146 40% 2 08.05.2028 -
Enrique Clemente Las Palmas Actif 131 / 142 40% 2 06.05.2028 -
Quilindschy Hartman Burnley Actif 155 / 163 40% 5 02.05.2028 -
Welington Southampton Actif 143 / 143 40% 10 01.05.2028 -
Isaiah Jones Luton Town Actif 135 / 140 40% 2 30.04.2028 -
Mikkel Damsgaard Brentford Actif 159 / 158 40% 7 27.04.2028 -
Carlos Alcaraz Stoke City Actif 148 / 148 40% 5 26.04.2028 -
Emile Smith Rowe Cardiff City Actif 155 / 138 40% 4 24.04.2028 -
Zeki Amdouni Luton Town Actif 142 / 134 40% 1 23.04.2028 -
Zito Luvumbo Cagliari Actif 143 / 133 40% 7 18.04.2028 -
Malick Fofana Sunderland Actif 158 / 156 40% 2 13.04.2028 -
Jon Balda Real Sociedad Actif 128 / 113 40% 1 12.04.2028 -
Musa Barrow ES Setif Actif 151 / 139 40% 1 12.04.2028 -
Alex Scott Bournemouth Actif 153 / 161 40% 10 11.04.2028 -
Vitaly Janelt Derby County Actif 148 / 158 40% 1 11.04.2028 -
Fábio Carvalho Brentford Actif 153 / 157 40% 3 05.04.2028 -
Brandon Thomas-Asante Blackpool Actif 124 / 110 40% 1 26.03.2028 -
Nathan Broadhead Wrexham Actif 125 / 139 40% 1 25.03.2028 -
William Osula Wrexham Actif 143 / 146 40% 3 24.03.2028 -
Riley McGree Middlesbrough Actif 143 / 137 40% 1 24.03.2028 -
Marcelo Allende Mamelodi Sundowns Actif 146 / 143 40% 4 20.03.2028 -
Eddie Nketiah Crystal Palace Actif 142 / 152 40% 2 19.03.2028 -
Brennan Johnson Middlesbrough Actif 148 / 133 40% 5 14.03.2028 -
Youssouf Fofana AC Milan Actif 154 / 166 40% 1 11.03.2028 -
Yeremy Pino Crystal Palace Actif 156 / 156 40% 1 04.03.2028 -
Matteo Ruggeri Middlesbrough Actif 154 / 138 40% 1 02.03.2028 -
Borja Sainz Udinese Actif 158 / 160 40% 1 29.02.2028 -
Manor Solomon West Ham United Actif 145 / 140 40% 1 27.02.2028 -
Nuno Santos SuperSport United Actif 132 / 111 40% 1 21.02.2028 -
Luis Rodriguez Valur Actif 128 / 118 40% 3 19.02.2028 -
Alisson Shakhtar Actif 139 / 150 40% 1 12.02.2028 -
Esequiel Barco Spartak Moscow Actif 149 / 138 40% 1 11.02.2028 -
Marquinhos Spartak Moscow Actif 130 / 142 40% 1 05.02.2028 -
Franco Zapiola Platense Actif 132 / 124 40% 1 01.02.2028 -
Alex Luna Instituto Actif 135 / 133 40% 3 31.01.2028 -
Jherson Mosquera Newell's Old Boys Actif 129 / 123 40% 4 30.01.2028 -
Juan Bisanz Huracán Actif 126 / 137 40% 1 30.01.2028 -
Aarón Molinas Defensa y Justicia Actif 133 / 117 40% 2 28.01.2028 -
Bruno Barticciotto Talleres Actif 134 / 120 40% 1 26.01.2028 -
Tomás Galván River Plate Actif 129 / 118 40% 1 21.01.2028 -
Lautaro Guzmán MTK Budapest Actif 122 / 112 40% 1 16.01.2028 -
Gastón Benedetti Estudiantes Actif 127 / 127 40% 1 14.01.2028 -
Gastón Togni Defensa y Justicia Actif 125 / 119 40% 3 11.01.2028 -
Matko Miljevic Racing Club Actif 132 / 119 40% 1 09.01.2028 -
Tiago Palacios Estudiantes Actif 131 / 133 40% 1 06.01.2028 -
Jaminton Campaz Rosario Central Actif 130 / 134 40% 2 05.01.2028 -
Alexis Cuello San Lorenzo Actif 124 / 125 40% 1 04.01.2028 -
Nicolás Tripichio San Lorenzo Actif 120 / 121 40% 2 27.12.2027 -
César Ibáñez Huracán Actif 123 / 124 40% 2 13.12.2027 -
Largie Ramazani Leeds United Actif 149 / 145 40% 1 02.12.2027 -
Josh Keeley Luton Town Actif 140 / 143 40% 5 29.11.2027 -
Lautaro Maldonado Instituto Actif 118 / 121 40% 11 29.11.2027 -
Vladimir Nazarov Pakhtakor Actif 117 / 110 40% 3 29.11.2027 -
James Trafford Leeds United Actif 149 / 137 40% 10 28.11.2027 -
Nahuel Galardi Maipú Actif 117 / 124 40% 12 27.11.2027 -
Sam Tickle Modena Actif 137 / 126 40% 2 27.11.2027 -
Nicolás Bolcato Independiente Rivadavia Actif 114 / 116 40% 4 25.11.2027 -
Lautaro Morales Lanús Actif 134 / 123 40% 9 25.11.2027 -
Luciano Jachfe Nueva Chicago Actif 121 / 128 40% 9 24.11.2027 -
Jakub Ojrzyński Orebro Actif 118 / 129 40% 3 24.11.2027 -
Leandro Brey Boca Juniors Actif 131 / 126 40% 4 23.11.2027 -
Jacob Chapman Huddersfield Town Actif 115 / 115 40% 2 23.11.2027 -
Abduvohid Ne'matov Nasaf Actif 126 / 115 40% 5 22.11.2027 -
Sol Brynn Bradford City Actif 137 / 140 40% 3 22.11.2027 -
Miguel Acosta Argentinos Juniors Actif 112 / 103 40% 8 21.11.2027 -
Nazareno Colombo Racing Club Actif 125 / 130 40% 2 21.11.2027 -
Guillermo Enrique Huracán Actif 120 / 127 40% 2 21.11.2027 -
Joaquín García Vélez Actif 130 / 127 40% 1 21.11.2027 -
Ignacio Vázquez Platense Actif 126 / 118 40% 3 20.11.2027 -
Felipe Peña Biafore Lanús Actif 133 / 125 40% 2 20.11.2027 -
Aarón Quiros Vélez Actif 126 / 131 40% 1 20.11.2027 -
Laureano Martínez Talleres Actif 110 / 102 40% 6 17.11.2027 -
Federico Losas Chacarita Juniors Actif 124 / 123 40% 6 15.11.2027 -
Ľubomír Belko Viking Actif 137 / 152 40% 5 15.11.2027 -
Oliver Dovin Coventry City Actif 140 / 147 40% 3 14.11.2027 Observer
Franco Díaz Temperley Actif 128 / 133 40% 2 14.11.2027 -
Emanuel Coronel Rosario Central Actif 129 / 120 40% 1 14.11.2027 -
Bruno Antúnez Boston River Actif 115 / 111 40% 9 11.11.2027 -
Cristopher Varela Deportivo La Guaira Actif 127 / 130 40% 8 11.11.2027 -
Frankarlos Benítez Caracas Actif 106 / 108 40% 7 10.11.2027 -
Facundo Vila Estudiantes Actif 108 / 98 40% 8 08.11.2027 -
Iván Chaves Patronato Actif 103 / 100 40% 4 08.11.2027 -
Luis Ingolotti Atlético Tucumán Actif 126 / 116 40% 4 03.11.2027 -
Francisco Salerno Defensores Unidos Actif 106 / 101 40% 6 29.10.2027 -
Victor Hernandez Santa Fe Actif 122 / 113 40% 2 27.10.2027 -
Miguel Morro Burgos Actif 128 / 129 40% 2 27.10.2027 -
Murphy Cooper Plymouth Argyle Actif 118 / 120 40% 4 24.10.2027 -
Fabrizio Correa Juventud Actif 123 / 110 40% 8 22.10.2027 -
Mikheil Makatsaria Torpedo Kutaisi Actif 114 / 115 40% 3 21.10.2027 -
Nahuel Banegas Tigre Actif 120 / 115 40% 2 21.10.2027 -
Christos Mandas Lazio Actif 151 / 131 40% 2 21.10.2027 -
Ignacio Abraham Banfield Actif 120 / 121 40% 1 21.10.2027 -
José Florentín Independiente Rivadavia Actif 123 / 110 40% 1 21.10.2027 -
Lucas Carrizo Newell's Old Boys Actif 130 / 116 40% 2 20.10.2027 -
Nicolás Sumavil Platense Actif 117 / 108 40% 8 16.10.2027 -
Mauro Casoli Talleres Actif 112 / 98 40% 7 09.10.2027 -
Mathías Bernatene Liverpool Montevideo Actif 111 / 103 40% 1 09.10.2027 -
Miguel Silva Carabobo Actif 117 / 106 40% 3 08.10.2027 -
Hernán de la Fuente Instituto Actif 119 / 125 40% 2 08.10.2027 -
Lucas Souto Defensa y Justicia Actif 126 / 132 40% 3 08.10.2027 -
Adrián Sánchez Belgrano Actif 126 / 125 40% 2 07.10.2027 -
Santiago González Tigre Actif 132 / 122 40% 1 07.10.2027 -
Juan Carlos Portillo River Plate Actif 133 / 118 40% 2 04.10.2027 -
Lukáš Horníček Burnley Actif 154 / 157 40% 1 04.10.2027 -
Sasha Marcich Lanús Actif 124 / 129 40% 1 04.10.2027 -
Vicente Poggi Godoy Cruz Actif 126 / 125 40% 3 02.10.2027 -
Claudio Bravo Argentinos Juniors Actif 121 / 126 40% 1 02.10.2027 -
Temirlan Anarbekov Kairat Actif 118 / 124 40% 5 29.09.2027 -
Oliver Petersen Odd Actif 122 / 111 40% 4 27.09.2027 -
Muhammadyusuf Sobirov Bunyodkor Actif 109 / 107 40% 1 25.09.2027 -
N'Golo Traoré Stade Malien Actif 113 / 124 40% 2 24.09.2027 -
Ander Astralaga Newcastle United Actif 135 / 134 40% 1 23.09.2027 -
Aníbal Moreno River Plate Actif 137 / 126 40% 1 23.09.2027 -
Rodrigo Herrera Newell's Old Boys Actif 127 / 122 40% 2 11.09.2027 -
Emiliano Álvarez Progreso Actif 126 / 117 40% 2 30.08.2027 -
Daniil Ustimenko Tobol Actif 109 / 110 40% 1 29.08.2027 -
Leonardo Godoy Independiente Actif 122 / 129 40% 1 27.08.2027 -
Luka Gavran Toronto FC Actif 109 / 102 40% 4 23.08.2027 -
Damián Fernández Defensa y Justicia Actif 129 / 121 40% 1 22.08.2027 -
Isaac Boehmer Vancouver Whitecaps Actif 115 / 100 40% 1 19.08.2027 -
Oumar Solet Udinese Actif 157 / 155 40% 1 19.08.2027 -
Gianluca Saro Foggia Actif 120 / 105 40% 4 17.08.2027 -
Matteo Sorzi Carpi Actif 101 / 123 40% 2 17.08.2027 -
Elia Boseggia Novara Actif 118 / 101 40% 4 13.08.2027 -
Valerio Boffelli Cavese Actif 107 / 96 40% 1 12.08.2027 -
Cesare Galeotti Trapani Actif 113 / 113 40% 2 11.08.2027 -
William Rovida Pro Patria Actif 108 / 122 40% 2 10.08.2027 -
Filip Marschall Stevenage Actif 115 / 122 40% 5 09.08.2027 -
Zach Hemming Chesterfield Actif 115 / 98 40% 2 09.08.2027 -
Max Bird Birmingham Actif 133 / 150 40% 6 08.08.2027 -
Michael Cooper Sheffield United Actif 135 / 122 40% 4 08.08.2027 -
Nathan Bishop AFC Wimbledon Actif 107 / 109 40% 3 08.08.2027 -
Maduka Okoye Udinese Actif 146 / 147 40% 2 06.08.2027 -
Ludovico Del Sorbo Sorrento Actif 109 / 118 40% 3 30.07.2027 -
Jordan Amissah Burton Albion Actif 115 / 116 40% 1 30.07.2027 -
Robin Roefs Sunderland Actif 155 / 161 40% 6 27.07.2027 -
Myles Roberts Cambridge United Actif 105 / 111 40% 1 25.07.2027 -
Nicolò Zaniolo Udinese Actif 150 / 133 40% 2 19.07.2027 -
Giacomo Raspadori Atalanta Actif 154 / 153 40% 1 19.07.2027 -
Mateo Pellegrino Fiorentina Actif 145 / 149 40% 1 01.07.2027 -
Adam Randell Bristol City Actif 130 / 144 40% 6 28.06.2027 -
Max Johnston Derby County Actif 125 / 121 40% 14 28.06.2027 -
Jonathan Varane Queens Park Rangers Actif 132 / 113 40% 2 28.06.2027 -
Darlin Yongwa Norwich City Actif 127 / 117 40% 4 23.06.2027 -
Florentino Luís Ipswich Town Actif 139 / 127 40% 9 23.06.2027 -
Erick Sánchez RC Lens Actif 139 / 139 68% 1 01.06.2027 Approuver
Ivor Pandur Hull City Actif 127 / 119 40% 1 30.05.2027 -
Pedro Porro Tottenham Actif 146 / 165 40% 3 25.05.2027 -
Ollie Scarles West Ham United Actif 125 / 132 40% 5 25.05.2027 -
Oliver Skipp Leicester City Actif 139 / 146 40% 6 24.05.2027 -
Jacques Ekomié Wrexham Actif 134 / 141 40% 7 24.05.2027 -
Milan van Ewijk Coventry City Actif 128 / 138 40% 11 23.05.2027 -
Sergio Barlocco Trento Actif 105 / 126 40% 1 22.05.2027 -
Adam Wharton Crystal Palace Actif 149 / 146 40% 7 20.05.2027 -
Alfie Doughty Millwall Actif 127 / 139 40% 5 19.05.2027 -
Dennis Cirkin Queens Park Rangers Actif 126 / 122 40% 6 18.05.2027 -
Jarrad Branthwaite Everton Actif 157 / 170 40% 4 18.05.2027 -
Mats Wieffer Brighton Actif 152 / 157 40% 4 17.05.2027 -
Ousmane Diomande Nottingham Forest Actif 156 / 171 40% 2 17.05.2027 -
Juanlu Bournemouth Actif 141 / 167 40% 6 16.05.2027 -
André Wolverhampton Actif 149 / 154 40% 9 15.05.2027 -
Keane Lewis-Potter Brentford Actif 140 / 149 40% 2 15.05.2027 -
Nicolas Madsen Queens Park Rangers Actif 126 / 123 40% 2 14.05.2027 -
Lewis Ferguson Bologna Actif 138 / 128 40% 2 14.05.2027 -
Ryan Sessegnon Fulham Actif 150 / 143 40% 4 13.05.2027 -
Ethan Galbraith Swansea City Actif 133 / 144 40% 8 12.05.2027 -
Jake O'Brien Everton Actif 142 / 150 40% 3 11.05.2027 -
Jack Currie Oxford United Actif 127 / 122 40% 3 11.05.2027 -
Jacob Greaves Ipswich Town Actif 136 / 128 40% 5 06.05.2027 -
Raoul Bellanova Atalanta Actif 154 / 158 40% 3 05.05.2027 -
Ronnie Edwards Queens Park Rangers Actif 126 / 146 40% 3 04.05.2027 -
Derry Murkin Derby County Actif 131 / 127 40% 3 02.05.2027 -
Óscar Mingueza Crystal Palace Actif 145 / 167 40% 5 28.04.2027 -
James Garner Everton Actif 144 / 166 40% 3 28.04.2027 -
Aaron Hickey Brentford Actif 142 / 141 40% 2 24.04.2027 -
Toby Collyer West Bromwich Albion Actif 133 / 116 40% 3 23.04.2027 -
Shahriar Rezaeian Siah Jamegan Actif 103 / 106 40% 1 20.04.2027 -
Quinten Timber Crystal Palace Actif 153 / 153 40% 5 18.04.2027 -
Harry Clarke Preston Actif 130 / 132 40% 6 15.04.2027 -
Aidan Morris Middlesbrough Actif 125 / 113 40% 5 11.04.2027 -
Fran Vieites Walsall Actif 125 / 107 40% 2 05.04.2027 -
Habib Diarra Sunderland Actif 141 / 130 40% 3 02.04.2027 -
Oufa Shobeir MC Alger Actif 125 / 124 40% 1 01.04.2027 -
Josh Tymon Swansea City Actif 119 / 113 40% 4 27.03.2027 -
Lewis Gibson Preston Actif 120 / 109 40% 1 22.03.2027 -
Lewis Bate Stockport County Actif 124 / 125 40% 3 17.03.2027 -
Alexandr Koryakin Krasnodar Actif 113 / 133 40% 2 15.03.2027 -
Arthur Beroe Actif 119 / 114 40% 1 15.03.2027 -
Heorhii Yermakov Metalist Actif 123 / 112 40% 3 10.03.2027 -
Nico O'Reilly Manchester City Actif 160 / 165 40% 2 02.03.2027 -
Pelle Mattsson Norwich City Actif 117 / 119 40% 3 26.02.2027 -
Luke McNally Bristol City Actif 128 / 138 40% 4 24.02.2027 -
Dara O'Shea Ipswich Town Actif 139 / 119 40% 3 23.02.2027 -
Nathan Collins Brentford Actif 146 / 138 40% 2 21.02.2027 -
Matevž Vidovšek Olimpija Ljubljana Actif 128 / 111 40% 3 15.02.2027 -
Lukas Jensen Millwall Actif 113 / 123 40% 1 15.02.2027 -
Japhet Tanganga Sheffield United Actif 139 / 119 40% 5 13.02.2027 -
Álex Centelles Levski Actif 129 / 137 40% 2 12.02.2027 -
Aldair Faustino Levski Actif 117 / 105 40% 1 07.02.2027 -
Bosun Lawal Stoke City Actif 128 / 112 40% 2 05.02.2027 -
Luca Gemello Perugia Actif 111 / 95 40% 1 05.02.2027 -
Teden Mengi Luton Town Actif 131 / 118 40% 4 02.02.2027 -
Hayden Carter Blackburn Rovers Actif 124 / 102 40% 1 02.02.2027 -
Gustavo Mantuan Zenit Actif 131 / 140 40% 3 31.01.2027 -
Alfie Gilchrist West Bromwich Albion Actif 126 / 132 40% 3 30.01.2027 -
Brian De Keersmaecker Oxford United Actif 119 / 124 40% 1 28.01.2027 -
Samu Maccabi Netanya Actif 119 / 111 40% 1 24.01.2027 -
Grégoire Coudert Burnley Actif 134 / 128 40% 2 17.01.2027 -
Dion Lopy Al-Ittihad Actif 122 / 146 40% 1 11.01.2027 -
Lee Buchanan Sheffield Wednesday Actif 121 / 132 40% 1 11.01.2027 -
Mamadou Sangaré Brentford Actif 134 / 150 40% 1 08.01.2027 -
Ivan Pakholiuk Kolos Actif 113 / 117 40% 2 04.01.2027 -
Sławomir Abramowicz Jagiellonia Actif 126 / 124 40% 2 02.01.2027 -
Roman Celentano FC Cincinnati Actif 114 / 129 40% 1 02.01.2027 -
Gustavo Hamer Sheffield United Actif 129 / 139 40% 1 30.12.2026 -
Chris Mepham West Bromwich Albion Actif 125 / 117 40% 1 30.12.2026 -
Kenny Tete Fulham Actif 139 / 127 40% 1 29.12.2026 -
Gedson Fernandes Spartak Moscow Actif 136 / 125 40% 1 19.12.2026 -
Ştefan Târnovanu CFR Cluj Actif 123 / 132 40% 1 18.12.2026 -
Kristoffer Lund Birmingham Actif 130 / 133 40% 1 16.12.2026 -
Diego Enríquez Sporting Cristal Actif 129 / 124 40% 3 08.12.2026 -
Luka Jović CFR Cluj Actif 143 / 130 40% 7 06.12.2026 -
Esteban Obregón Montevideo City Torque Actif 114 / 118 79% 1 06.12.2026 Approuver
Ollie Watkins Al-Hilal Actif 153 / 132 40% 4 02.12.2026 -
Stanislav Agkatsev Brentford Actif 132 / 133 66% 1 01.12.2026 Approuver
Marvin Keller Chelsea Actif 136 / 137 67% 1 01.12.2026 Approuver
Che Adams Torino Actif 137 / 131 40% 2 30.11.2026 -
Oli McBurnie Hull City Actif 129 / 148 40% 1 28.11.2026 -
Bertrand Traoré Sunderland Actif 138 / 115 40% 3 27.11.2026 -
Patrick Cutrone Monza Actif 126 / 120 40% 2 25.11.2026 -
Germán Berterame Inter Miami CF Actif 138 / 116 40% 4 24.11.2026 -
Alexey Miranchuk Atlanta United FC Actif 135 / 134 40% 3 24.11.2026 -
Reda Khadra Qarabag Actif 124 / 117 40% 1 24.11.2026 -
Oscar Al-Taawoun Actif 149 / 124 40% 1 24.11.2026 -
Leo Ceara Kashima Antlers Actif 134 / 121 40% 6 22.11.2026 -
Vitinha Genoa Actif 137 / 143 40% 1 21.11.2026 -
Azor Matusiwa Ipswich Town Actif 143 / 120 40% 1 19.11.2026 -
Álex Berenguer Lokomotiv Moscow Actif 149 / 169 40% 1 19.11.2026 -
Radek Vítek Middlesbrough Actif 135 / 118 40% 3 17.11.2026 -
Hidemasa Morita Hull City Actif 149 / 127 40% 1 15.11.2026 -
Keinan Davis Udinese Actif 125 / 120 40% 2 13.11.2026 -
Martín Ojeda Orlando City Actif 137 / 150 40% 6 12.11.2026 -
Martin Trnovský Podbrezova Actif 106 / 100 40% 1 09.11.2026 -
Mojmír Chytil Slavia Prague Actif 127 / 114 40% 4 07.11.2026 -
Hwang Hee-Chan Wolverhampton Actif 135 / 149 40% 1 06.11.2026 -
Nathan Trott Cardiff City Actif 123 / 119 40% 1 04.11.2026 -
Lukas Gütlbauer Wolfsberger AC Actif 117 / 121 40% 1 01.11.2026 -
Lucas Bergström Union Berlin Actif 118 / 117 40% 4 28.10.2026 -
Takuma Asano Sanfrecce Hiroshima Actif 135 / 150 40% 6 23.10.2026 -
Petar Musa FC Dallas Actif 140 / 136 40% 4 22.10.2026 -
Andreas Jungdal Westerlo Actif 119 / 133 40% 1 10.10.2026 -
Pablo Felipe West Ham United Actif 126 / 135 40% 1 07.10.2026 -
Richard Ludha MFK Skalica Actif 109 / 116 40% 1 06.10.2026 -
Leo Kokubo Sint-Truiden Actif 113 / 126 40% 1 28.09.2026 -
Justin Hammel Grasshopper Actif 121 / 115 40% 1 28.09.2026 -
Diego Romero Universitario Actif 118 / 114 40% 2 26.09.2026 -
Myrto Uzuni Austin FC Actif 134 / 147 40% 1 26.09.2026 -
CJ dos Santos San Diego Football Club Actif 115 / 121 40% 1 25.09.2026 -
Enes Ünal Getafe Actif 138 / 143 40% 1 21.09.2026 -
Aldo Pérez Guarani Actif 107 / 121 40% 2 14.09.2026 -
Rodrigo Morínigo Debrecen Actif 118 / 117 40% 3 14.09.2026 -
Jesús Angulo Tigres Actif 142 / 132 40% 1 10.09.2026 -
Ander Guevara Racing Genk Actif 129 / 133 40% 1 10.09.2026 -
Héctor Holguín Morelia Actif 111 / 125 40% 2 06.09.2026 -
Kazuki Fujita Avispa Fukuoka Actif 119 / 116 40% 1 04.09.2026 -
Patrick Schulte Columbus Crew Actif 116 / 118 40% 1 25.08.2026 -
Anthony Racioppi Sion Actif 124 / 124 40% 2 21.08.2026 -
Steven Bergwijn Al-Ittihad Actif 147 / 146 40% 1 14.08.2026 -
Lucas Verza Olimpia Actif 109 / 98 40% 1 12.08.2026 -
Mauro Silveira Junior Actif 111 / 102 40% 1 05.08.2026 -
John Pulskamp Sporting Kansas City Actif 115 / 131 40% 1 05.08.2026 -
Milan Škriniar Fenerbahce Actif 159 / 166 40% 1 04.08.2026 -
Víctor Guzmán Monterrey Actif 121 / 134 40% 1 04.08.2026 -
Kevin Álvarez Club America Actif 129 / 127 40% 1 04.08.2026 -
Luis Romo Guadalajara Actif 138 / 136 40% 1 03.08.2026 -
Carlos Álvarez Club America Actif 133 / 126 40% 1 03.08.2026 -
Jesús Gallardo Toluca Actif 129 / 121 40% 1 03.08.2026 -